sensor_id;sensor_type;location;lat;lon;timestamp;pressure;altitude;pressure_sealevel;temperature;humidity
56082;BME280;41957;52.060;5.138;2022-07-09T00:00:30;102969.03;;;22.59;56.17
56082;BME280;41957;52.060;5.138;2022-07-09T00:02:55;102962.81;;;22.57;56.22
56082;BME280;41957;52.060;5.138;2022-07-09T00:05:21;102965.50;;;22.57;56.25
56082;BME280;41957;52.060;5.138;2022-07-09T00:07:46;102954.84;;;22.56;56.34
56082;BME280;41957;52.060;5.138;2022-07-09T00:10:11;102953.97;;;22.55;56.16
56082;BME280;41957;52.060;5.138;2022-07-09T00:12:36;102952.16;;;22.56;56.22
56082;BME280;41957;52.060;5.138;2022-07-09T00:15:02;102957.56;;;22.54;56.27
56082;BME280;41957;52.060;5.138;2022-07-09T00:17:27;102954.97;;;22.53;56.12
56082;BME280;41957;52.060;5.138;2022-07-09T00:19:55;102950.47;;;22.53;56.19
56082;BME280;41957;52.060;5.138;2022-07-09T00:22:20;102946.03;;;22.52;56.23
56082;BME280;41957;52.060;5.138;2022-07-09T00:24:45;102951.41;;;22.52;56.31
56082;BME280;41957;52.060;5.138;2022-07-09T00:27:10;102951.41;;;22.52;56.36
56082;BME280;41957;52.060;5.138;2022-07-09T00:29:36;102953.19;;;22.52;56.02
56082;BME280;41957;52.060;5.138;2022-07-09T00:32:01;102944.28;;;22.51;56.05
56082;BME280;41957;52.060;5.138;2022-07-09T00:34:26;102950.50;;;22.52;56.28
56082;BME280;41957;52.060;5.138;2022-07-09T00:36:51;102942.53;;;22.50;56.30
56082;BME280;41957;52.060;5.138;2022-07-09T00:39:17;102955.00;;;22.51;56.46
56082;BME280;41957;52.060;5.138;2022-07-09T00:41:42;102942.53;;;22.50;56.11
56082;BME280;41957;52.060;5.138;2022-07-09T00:44:07;102942.53;;;22.50;56.19
56082;BME280;41957;52.060;5.138;2022-07-09T00:46:32;102935.44;;;22.49;56.34
56082;BME280;41957;52.060;5.138;2022-07-09T00:48:58;102943.47;;;22.49;56.26
56082;BME280;41957;52.060;5.138;2022-07-09T00:51:28;102938.16;;;22.48;56.06
56082;BME280;41957;52.060;5.138;2022-07-09T00:53:54;102948.00;;;22.47;56.42
56082;BME280;41957;52.060;5.138;2022-07-09T00:56:19;102954.22;;;22.48;56.11
56082;BME280;41957;52.060;5.138;2022-07-09T00:58:44;102946.25;;;22.46;56.29
56082;BME280;41957;52.060;5.138;2022-07-09T01:01:10;102952.53;;;22.45;56.34
56082;BME280;41957;52.060;5.138;2022-07-09T01:03:35;102941.88;;;22.43;56.28
56082;BME280;41957;52.060;5.138;2022-07-09T01:06:00;102953.47;;;22.44;56.35
56082;BME280;41957;52.060;5.138;2022-07-09T01:08:26;102940.94;;;22.44;56.43
56082;BME280;41957;52.060;5.138;2022-07-09T01:10:51;102936.50;;;22.43;56.29
56082;BME280;41957;52.060;5.138;2022-07-09T01:13:17;102930.31;;;22.41;56.49
56082;BME280;41957;52.060;5.138;2022-07-09T01:15:42;102925.81;;;22.42;56.47
56082;BME280;41957;52.060;5.138;2022-07-09T01:18:10;102924.09;;;22.41;56.20
56082;BME280;41957;52.060;5.138;2022-07-09T01:20:36;102911.56;;;22.41;56.31
56082;BME280;41957;52.060;5.138;2022-07-09T01:23:01;102920.53;;;22.40;56.56
56082;BME280;41957;52.060;5.138;2022-07-09T01:25:37;102926.75;;;22.41;56.09
56082;BME280;41957;52.060;5.138;2022-07-09T01:28:03;102916.91;;;22.41;55.97
56082;BME280;41957;52.060;5.138;2022-07-09T01:30:30;102920.56;;;22.39;56.41
56082;BME280;41957;52.060;5.138;2022-07-09T01:32:56;102925.94;;;22.39;56.24
56082;BME280;41957;52.060;5.138;2022-07-09T01:35:21;102925.03;;;22.40;56.41
56082;BME280;41957;52.060;5.138;2022-07-09T01:37:47;102919.69;;;22.38;56.32
56082;BME280;41957;52.060;5.138;2022-07-09T01:40:12;102917.88;;;22.39;56.47
56082;BME280;41957;52.060;5.138;2022-07-09T01:42:38;102914.34;;;22.38;56.46
56082;BME280;41957;52.060;5.138;2022-07-09T01:45:03;102910.78;;;22.38;56.45
56082;BME280;41957;52.060;5.138;2022-07-09T01:47:29;102916.16;;;22.38;56.18
56082;BME280;41957;52.060;5.138;2022-07-09T01:49:54;102913.50;;;22.36;56.27
56082;BME280;41957;52.060;5.138;2022-07-09T01:52:19;102900.09;;;22.36;56.40
56082;BME280;41957;52.060;5.138;2022-07-09T01:54:44;102901.13;;;22.34;56.46
56082;BME280;41957;52.060;5.138;2022-07-09T01:57:10;102901.16;;;22.32;56.38
56082;BME280;41957;52.060;5.138;2022-07-09T01:59:35;102909.09;;;22.35;56.48
56082;BME280;41957;52.060;5.138;2022-07-09T02:02:00;102905.53;;;22.35;56.40
56082;BME280;41957;52.060;5.138;2022-07-09T02:04:26;102903.78;;;22.34;56.29
56082;BME280;41957;52.060;5.138;2022-07-09T02:06:51;102896.66;;;22.33;56.35
56082;BME280;41957;52.060;5.138;2022-07-09T02:09:16;102891.31;;;22.33;56.54
56082;BME280;41957;52.060;5.138;2022-07-09T02:11:42;102894.91;;;22.32;56.34
56082;BME280;41957;52.060;5.138;2022-07-09T02:14:08;102885.06;;;22.32;56.64
56082;BME280;41957;52.060;5.138;2022-07-09T02:16:33;102884.19;;;22.32;56.64
56082;BME280;41957;52.060;5.138;2022-07-09T02:18:58;102887.81;;;22.31;56.40
56082;BME280;41957;52.060;5.138;2022-07-09T02:21:23;102881.56;;;22.30;56.54
56082;BME280;41957;52.060;5.138;2022-07-09T02:23:49;102886.91;;;22.30;56.45
56082;BME280;41957;52.060;5.138;2022-07-09T02:26:21;102886.03;;;22.30;56.64
56082;BME280;41957;52.060;5.138;2022-07-09T02:28:47;102894.09;;;22.30;56.46
56082;BME280;41957;52.060;5.138;2022-07-09T02:31:12;102890.53;;;22.29;56.42
56082;BME280;41957;52.060;5.138;2022-07-09T02:33:37;102889.59;;;22.30;56.49
56082;BME280;41957;52.060;5.138;2022-07-09T02:36:02;102885.19;;;22.29;56.57
56082;BME280;41957;52.060;5.138;2022-07-09T02:38:27;102880.75;;;22.28;56.39
56082;BME280;41957;52.060;5.138;2022-07-09T02:40:53;102885.25;;;22.28;56.49
56082;BME280;41957;52.060;5.138;2022-07-09T02:43:18;102887.94;;;22.28;56.60
56082;BME280;41957;52.060;5.138;2022-07-09T02:45:43;102884.34;;;22.27;56.49
56082;BME280;41957;52.060;5.138;2022-07-09T02:48:08;102873.63;;;22.27;56.48
56082;BME280;41957;52.060;5.138;2022-07-09T02:50:34;102873.69;;;22.26;56.56
56082;BME280;41957;52.060;5.138;2022-07-09T02:52:59;102868.28;;;22.27;56.61
56082;BME280;41957;52.060;5.138;2022-07-09T02:55:25;102877.25;;;22.26;56.62
56082;BME280;41957;52.060;5.138;2022-07-09T02:57:50;102880.78;;;22.27;56.56
56082;BME280;41957;52.060;5.138;2022-07-09T03:00:15;102872.81;;;22.25;56.76
56082;BME280;41957;52.060;5.138;2022-07-09T03:02:41;102874.56;;;22.26;56.73
56082;BME280;41957;52.060;5.138;2022-07-09T03:05:06;102864.72;;;22.27;56.60
56082;BME280;41957;52.060;5.138;2022-07-09T03:07:31;102864.78;;;22.25;56.57
56082;BME280;41957;52.060;5.138;2022-07-09T03:09:56;102863.91;;;22.25;56.65
56082;BME280;41957;52.060;5.138;2022-07-09T03:12:22;102868.38;;;22.24;56.65
56082;BME280;41957;52.060;5.138;2022-07-09T03:14:47;102871.06;;;22.24;56.58
56082;BME280;41957;52.060;5.138;2022-07-09T03:17:12;102869.31;;;22.23;56.62
56082;BME280;41957;52.060;5.138;2022-07-09T03:19:37;102866.63;;;22.23;56.58
56082;BME280;41957;52.060;5.138;2022-07-09T03:22:03;102868.38;;;22.24;56.79
56082;BME280;41957;52.060;5.138;2022-07-09T03:24:28;102862.16;;;22.24;56.59
56082;BME280;41957;52.060;5.138;2022-07-09T03:26:54;102858.59;;;22.23;56.73
56082;BME280;41957;52.060;5.138;2022-07-09T03:29:19;102870.19;;;22.24;56.89
56082;BME280;41957;52.060;5.138;2022-07-09T03:31:44;102866.63;;;22.23;56.66
56082;BME280;41957;52.060;5.138;2022-07-09T03:34:09;102872.00;;;22.23;56.59
56082;BME280;41957;52.060;5.138;2022-07-09T03:36:34;102869.34;;;22.21;56.56
56082;BME280;41957;52.060;5.138;2022-07-09T03:39:01;102870.19;;;22.24;56.75
56082;BME280;41957;52.060;5.138;2022-07-09T03:41:26;102873.81;;;22.23;56.72
56082;BME280;41957;52.060;5.138;2022-07-09T03:43:51;102874.66;;;22.23;56.57
56082;BME280;41957;52.060;5.138;2022-07-09T03:46:16;102873.81;;;22.23;56.62
56082;BME280;41957;52.060;5.138;2022-07-09T03:48:42;102864.81;;;22.24;56.69
56082;BME280;41957;52.060;5.138;2022-07-09T03:51:07;102875.53;;;22.24;56.66
56082;BME280;41957;52.060;5.138;2022-07-09T03:53:32;102872.00;;;22.23;56.79
56082;BME280;41957;52.060;5.138;2022-07-09T03:55:58;102871.06;;;22.24;56.65
56082;BME280;41957;52.060;5.138;2022-07-09T03:58:23;102872.00;;;22.23;56.60
56082;BME280;41957;52.060;5.138;2022-07-09T04:00:48;102863.94;;;22.23;56.60
56082;BME280;41957;52.060;5.138;2022-07-09T04:03:13;102863.00;;;22.24;56.81
56082;BME280;41957;52.060;5.138;2022-07-09T04:05:39;102864.81;;;22.24;56.62
56082;BME280;41957;52.060;5.138;2022-07-09T04:08:04;102862.09;;;22.25;56.51
56082;BME280;41957;52.060;5.138;2022-07-09T04:10:29;102864.78;;;22.25;56.79
56082;BME280;41957;52.060;5.138;2022-07-09T04:12:55;102863.91;;;22.25;56.71
56082;BME280;41957;52.060;5.138;2022-07-09T04:15:20;102858.50;;;22.26;56.80
56082;BME280;41957;52.060;5.138;2022-07-09T04:17:45;102854.97;;;22.24;56.74
56082;BME280;41957;52.060;5.138;2022-07-09T04:20:10;102860.22;;;22.27;56.60
56082;BME280;41957;52.060;5.138;2022-07-09T04:22:36;102846.91;;;22.26;56.56
56082;BME280;41957;52.060;5.138;2022-07-09T04:25:01;102847.66;;;22.29;56.52
56082;BME280;41957;52.060;5.138;2022-07-09T04:27:26;102845.81;;;22.31;56.51
56082;BME280;41957;52.060;5.138;2022-07-09T04:29:51;102848.53;;;22.30;56.59
56082;BME280;41957;52.060;5.138;2022-07-09T04:32:17;102855.66;;;22.31;56.67
56082;BME280;41957;52.060;5.138;2022-07-09T04:34:42;102859.22;;;22.31;56.49
56082;BME280;41957;52.060;5.138;2022-07-09T04:37:07;102858.28;;;22.32;56.58
56082;BME280;41957;52.060;5.138;2022-07-09T04:39:33;102850.31;;;22.31;56.54
56082;BME280;41957;52.060;5.138;2022-07-09T04:41:58;102848.50;;;22.31;56.53
56082;BME280;41957;52.060;5.138;2022-07-09T04:44:24;102846.72;;;22.30;56.59
56082;BME280;41957;52.060;5.138;2022-07-09T04:46:49;102845.81;;;22.31;56.65
56082;BME280;41957;52.060;5.138;2022-07-09T04:49:14;102851.19;;;22.31;56.45
56082;BME280;41957;52.060;5.138;2022-07-09T04:51:40;102842.31;;;22.29;56.62
56082;BME280;41957;52.060;5.138;2022-07-09T04:54:05;102841.34;;;22.32;56.69
56082;BME280;41957;52.060;5.138;2022-07-09T04:56:30;102835.03;;;22.33;56.64
56082;BME280;41957;52.060;5.138;2022-07-09T04:58:55;102832.31;;;22.34;56.51
56082;BME280;41957;52.060;5.138;2022-07-09T05:01:21;102827.75;;;22.36;56.08
56082;BME280;41957;52.060;5.138;2022-07-09T05:03:47;102824.22;;;22.36;56.42
56082;BME280;41957;52.060;5.138;2022-07-09T05:06:13;102824.22;;;22.36;56.52
56082;BME280;41957;52.060;5.138;2022-07-09T05:08:39;102828.75;;;22.34;56.55
56082;BME280;41957;52.060;5.138;2022-07-09T05:11:04;102819.78;;;22.35;56.56
56082;BME280;41957;52.060;5.138;2022-07-09T05:13:29;102818.91;;;22.34;56.55
56082;BME280;41957;52.060;5.138;2022-07-09T05:15:55;102820.72;;;22.34;56.57
56082;BME280;41957;52.060;5.138;2022-07-09T05:18:20;102814.44;;;22.35;56.56
56082;BME280;41957;52.060;5.138;2022-07-09T05:20:45;102812.59;;;22.37;56.60
56082;BME280;41957;52.060;5.138;2022-07-09T05:23:10;102820.53;;;22.38;56.52
56082;BME280;41957;52.060;5.138;2022-07-09T05:25:36;102810.69;;;22.39;56.52
56082;BME280;41957;52.060;5.138;2022-07-09T05:28:01;102817.88;;;22.38;56.74
56082;BME280;41957;52.060;5.138;2022-07-09T05:30:26;102810.69;;;22.39;56.55
56082;BME280;41957;52.060;5.138;2022-07-09T05:32:52;102821.41;;;22.39;56.60
56082;BME280;41957;52.060;5.138;2022-07-09T05:35:17;102817.88;;;22.38;56.60
56082;BME280;41957;52.060;5.138;2022-07-09T05:37:43;102826.78;;;22.39;56.51
56082;BME280;41957;52.060;5.138;2022-07-09T05:40:09;102815.19;;;22.38;56.45
56082;BME280;41957;52.060;5.138;2022-07-09T05:42:34;102818.75;;;22.39;56.41
56082;BME280;41957;52.060;5.138;2022-07-09T05:44:59;102819.56;;;22.41;56.69
56082;BME280;41957;52.060;5.138;2022-07-09T05:47:25;102819.56;;;22.41;56.71
56082;BME280;41957;52.060;5.138;2022-07-09T05:49:50;102832.09;;;22.40;56.57
56082;BME280;41957;52.060;5.138;2022-07-09T05:52:15;102822.28;;;22.39;56.58
56082;BME280;41957;52.060;5.138;2022-07-09T05:54:41;102826.78;;;22.39;56.60
56082;BME280;41957;52.060;5.138;2022-07-09T05:57:06;102836.59;;;22.40;56.79
56082;BME280;41957;52.060;5.138;2022-07-09T05:59:31;102843.72;;;22.39;56.83
56082;BME280;41957;52.060;5.138;2022-07-09T06:01:56;102838.38;;;22.39;56.78
56082;BME280;41957;52.060;5.138;2022-07-09T06:04:21;102831.22;;;22.40;56.72
56082;BME280;41957;52.060;5.138;2022-07-09T06:06:47;102831.25;;;22.38;56.88
56082;BME280;41957;52.060;5.138;2022-07-09T06:09:12;102833.06;;;22.38;56.73
56082;BME280;41957;52.060;5.138;2022-07-09T06:11:37;102833.00;;;22.39;56.68
56082;BME280;41957;52.060;5.138;2022-07-09T06:14:02;102828.56;;;22.40;56.80
56082;BME280;41957;52.060;5.138;2022-07-09T06:16:28;102833.91;;;22.40;57.06
56082;BME280;41957;52.060;5.138;2022-07-09T06:18:53;102834.78;;;22.40;57.03
56082;BME280;41957;52.060;5.138;2022-07-09T06:21:19;102831.22;;;22.40;56.84
56082;BME280;41957;52.060;5.138;2022-07-09T06:23:44;102826.75;;;22.40;56.74
56082;BME280;41957;52.060;5.138;2022-07-09T06:26:09;102825.81;;;22.41;56.88
56082;BME280;41957;52.060;5.138;2022-07-09T06:28:37;102833.84;;;22.41;56.80
56082;BME280;41957;52.060;5.138;2022-07-09T06:31:03;102826.66;;;22.42;56.85
56082;BME280;41957;52.060;5.138;2022-07-09T06:33:28;102826.75;;;22.40;56.91
56082;BME280;41957;52.060;5.138;2022-07-09T06:35:53;102843.84;;;22.36;57.08
56082;BME280;41957;52.060;5.138;2022-07-09T06:38:19;102839.47;;;22.34;57.02
56082;BME280;41957;52.060;5.138;2022-07-09T06:40:44;102846.63;;;22.33;57.14
56082;BME280;41957;52.060;5.138;2022-07-09T06:43:09;102849.31;;;22.33;57.23
56082;BME280;41957;52.060;5.138;2022-07-09T06:45:36;102851.94;;;22.35;57.09
56082;BME280;41957;52.060;5.138;2022-07-09T06:48:01;102843.03;;;22.34;57.28
56082;BME280;41957;52.060;5.138;2022-07-09T06:50:26;102840.38;;;22.33;57.36
56082;BME280;41957;52.060;5.138;2022-07-09T06:52:51;102839.47;;;22.34;57.17
56082;BME280;41957;52.060;5.138;2022-07-09T06:55:17;102841.34;;;22.32;57.26
56082;BME280;41957;52.060;5.138;2022-07-09T06:57:42;102838.66;;;22.32;57.17
56082;BME280;41957;52.060;5.138;2022-07-09T07:00:07;102836.91;;;22.31;57.40
56082;BME280;41957;52.060;5.138;2022-07-09T07:02:33;102835.91;;;22.33;57.33
56082;BME280;41957;52.060;5.138;2022-07-09T07:04:58;102825.03;;;22.38;57.28
56082;BME280;41957;52.060;5.138;2022-07-09T07:07:23;102822.28;;;22.39;57.14
56082;BME280;41957;52.060;5.138;2022-07-09T07:09:49;102820.50;;;22.40;57.11
56082;BME280;41957;52.060;5.138;2022-07-09T07:12:15;102828.34;;;22.46;56.94
56082;BME280;41957;52.060;5.138;2022-07-09T07:14:41;102831.56;;;22.56;56.66
56082;BME280;41957;52.060;5.138;2022-07-09T07:17:06;102823.31;;;22.60;56.43
56082;BME280;41957;52.060;5.138;2022-07-09T07:19:32;102831.84;;;22.72;56.11
56082;BME280;41957;52.060;5.138;2022-07-09T07:21:57;102830.91;;;22.73;56.35
56082;BME280;41957;52.060;5.138;2022-07-09T07:24:22;102829.06;;;22.75;56.14
56082;BME280;41957;52.060;5.138;2022-07-09T07:26:48;102827.72;;;22.86;55.87
56082;BME280;41957;52.060;5.138;2022-07-09T07:29:13;102824.94;;;22.89;56.03
56082;BME280;41957;52.060;5.138;2022-07-09T07:31:38;102825.81;;;22.90;55.95
56082;BME280;41957;52.060;5.138;2022-07-09T07:34:04;102830.81;;;22.76;56.28
56082;BME280;41957;52.060;5.138;2022-07-09T07:36:29;102838.09;;;22.72;56.90
56082;BME280;41957;52.060;5.138;2022-07-09T07:38:54;102845.31;;;22.70;57.10
56082;BME280;41957;52.060;5.138;2022-07-09T07:41:19;102849.91;;;22.66;57.30
56082;BME280;41957;52.060;5.138;2022-07-09T07:43:46;102840.16;;;22.64;57.28
56082;BME280;41957;52.060;5.138;2022-07-09T07:46:11;102840.34;;;22.59;57.33
56082;BME280;41957;52.060;5.138;2022-07-09T07:48:36;102842.19;;;22.57;57.54
56082;BME280;41957;52.060;5.138;2022-07-09T07:51:02;102844.09;;;22.55;57.63
56082;BME280;41957;52.060;5.138;2022-07-09T07:53:29;102838.66;;;22.57;57.44
56082;BME280;41957;52.060;5.138;2022-07-09T07:55:54;102839.47;;;22.59;57.62
56082;BME280;41957;52.060;5.138;2022-07-09T07:58:20;102838.59;;;22.58;57.59
56082;BME280;41957;52.060;5.138;2022-07-09T08:00:45;102831.44;;;22.59;57.48
56082;BME280;41957;52.060;5.138;2022-07-09T08:03:10;102834.00;;;22.62;57.53
56082;BME280;41957;52.060;5.138;2022-07-09T08:05:35;102832.34;;;22.58;57.53
56082;BME280;41957;52.060;5.138;2022-07-09T08:08:01;102823.44;;;22.57;57.74
56082;BME280;41957;52.060;5.138;2022-07-09T08:10:26;102819.00;;;22.56;57.57
56082;BME280;41957;52.060;5.138;2022-07-09T08:12:51;102829.63;;;22.59;57.45
56082;BME280;41957;52.060;5.138;2022-07-09T08:15:16;102826.88;;;22.61;57.37
56082;BME280;41957;52.060;5.138;2022-07-09T08:17:42;102817.22;;;22.57;57.74
56082;BME280;41957;52.060;5.138;2022-07-09T08:20:07;102823.53;;;22.54;57.68
56082;BME280;41957;52.060;5.138;2022-07-09T08:22:32;102828.97;;;22.53;57.73
56082;BME280;41957;52.060;5.138;2022-07-09T08:24:58;102828.16;;;22.51;57.69
56082;BME280;41957;52.060;5.138;2022-07-09T08:27:23;102830.91;;;22.49;57.97
56082;BME280;41957;52.060;5.138;2022-07-09T08:29:48;102830.91;;;22.49;57.86
56082;BME280;41957;52.060;5.138;2022-07-09T08:32:16;102827.31;;;22.49;57.73
56082;BME280;41957;52.060;5.138;2022-07-09T08:34:41;102837.25;;;22.47;57.98
56082;BME280;41957;52.060;5.138;2022-07-09T08:37:07;102838.16;;;22.45;57.82
56082;BME280;41957;52.060;5.138;2022-07-09T08:39:32;102831.91;;;22.45;57.85
56082;BME280;41957;52.060;5.138;2022-07-09T08:41:58;102833.72;;;22.44;57.86
56082;BME280;41957;52.060;5.138;2022-07-09T08:44:25;102829.25;;;22.45;57.91
56082;BME280;41957;52.060;5.138;2022-07-09T08:46:51;102828.38;;;22.44;57.77
56082;BME280;41957;52.060;5.138;2022-07-09T08:49:16;102825.66;;;22.46;57.72
56082;BME280;41957;52.060;5.138;2022-07-09T08:51:41;102827.31;;;22.49;57.57
56082;BME280;41957;52.060;5.138;2022-07-09T08:54:08;102827.38;;;22.47;57.72
56082;BME280;41957;52.060;5.138;2022-07-09T08:56:33;102823.84;;;22.47;57.90
56082;BME280;41957;52.060;5.138;2022-07-09T08:58:58;102819.34;;;22.47;57.68
56082;BME280;41957;52.060;5.138;2022-07-09T09:01:24;102823.84;;;22.47;57.77
56082;BME280;41957;52.060;5.138;2022-07-09T09:03:50;102815.50;;;22.54;57.39
56082;BME280;41957;52.060;5.138;2022-07-09T09:06:16;102809.22;;;22.55;57.62
56082;BME280;41957;52.060;5.138;2022-07-09T09:08:42;102812.75;;;22.81;56.93
56082;BME280;41957;52.060;5.138;2022-07-09T09:11:19;102812.84;;;23.03;56.23
56082;BME280;41957;52.060;5.138;2022-07-09T09:13:46;102820.00;;;23.48;54.59
56082;BME280;41957;52.060;5.138;2022-07-09T09:16:12;102814.53;;;23.51;54.52
56082;BME280;41957;52.060;5.138;2022-07-09T09:18:41;102815.84;;;23.63;54.65
56082;BME280;41957;52.060;5.138;2022-07-09T09:21:07;102801.97;;;23.73;54.17
56082;BME280;41957;52.060;5.138;2022-07-09T09:23:52;102808.84;;;23.58;54.60
56082;BME280;41957;52.060;5.138;2022-07-09T09:26:18;102809.44;;;23.43;54.95
56082;BME280;41957;52.060;5.138;2022-07-09T09:28:51;102809.59;;;23.84;53.46
56082;BME280;41957;52.060;5.138;2022-07-09T09:31:17;102808.25;;;23.94;53.37
56082;BME280;41957;52.060;5.138;2022-07-09T09:33:43;102805.19;;;24.03;52.91
56082;BME280;41957;52.060;5.138;2022-07-09T09:36:08;102810.22;;;23.91;52.82
56082;BME280;41957;52.060;5.138;2022-07-09T09:38:33;102810.34;;;23.88;52.80
56082;BME280;41957;52.060;5.138;2022-07-09T09:40:58;102815.16;;;23.79;52.31
56082;BME280;41957;52.060;5.138;2022-07-09T09:43:24;102812.78;;;23.94;50.95
56082;BME280;41957;52.060;5.138;2022-07-09T09:45:50;102810.44;;;23.86;51.29
56082;BME280;41957;52.060;5.138;2022-07-09T09:48:19;102807.19;;;23.78;51.62
56082;BME280;41957;52.060;5.138;2022-07-09T09:50:46;102814.56;;;23.49;52.70
56082;BME280;41957;52.060;5.138;2022-07-09T09:53:12;102815.63;;;23.45;52.49
56082;BME280;41957;52.060;5.138;2022-07-09T09:55:38;102809.25;;;23.92;51.40
56082;BME280;41957;52.060;5.138;2022-07-09T09:58:05;102813.50;;;23.97;51.57
56082;BME280;41957;52.060;5.138;2022-07-09T10:00:31;102824.78;;;23.85;51.89
56082;BME280;41957;52.060;5.138;2022-07-09T10:02:56;102821.00;;;23.45;53.01
56082;BME280;41957;52.060;5.138;2022-07-09T10:05:22;102817.44;;;23.45;52.74
56082;BME280;41957;52.060;5.138;2022-07-09T10:07:47;102820.19;;;23.43;52.46
56082;BME280;41957;52.060;5.138;2022-07-09T10:10:16;102814.03;;;23.41;52.26
56082;BME280;41957;52.060;5.138;2022-07-09T10:12:42;102826.59;;;23.17;52.73
56082;BME280;41957;52.060;5.138;2022-07-09T10:15:08;102826.63;;;23.16;53.01
56082;BME280;41957;52.060;5.138;2022-07-09T10:17:43;102831.56;;;23.04;53.25
56082;BME280;41957;52.060;5.138;2022-07-09T10:20:09;102832.34;;;22.83;54.07
56082;BME280;41957;52.060;5.138;2022-07-09T10:22:36;102832.94;;;22.66;54.67
56082;BME280;41957;52.060;5.138;2022-07-09T10:25:02;102842.19;;;22.57;55.16
56082;BME280;41957;52.060;5.138;2022-07-09T10:27:27;102844.13;;;22.54;55.21
56082;BME280;41957;52.060;5.138;2022-07-09T10:29:56;102844.31;;;22.49;55.22
56082;BME280;41957;52.060;5.138;2022-07-09T10:32:28;102845.16;;;22.50;55.37
56082;BME280;41957;52.060;5.138;2022-07-09T10:39:56;102847.19;;;22.43;55.46
56082;BME280;41957;52.060;5.138;2022-07-09T10:42:22;102836.41;;;22.44;55.62
56082;BME280;41957;52.060;5.138;2022-07-09T10:44:50;102854.09;;;22.50;55.42
56082;BME280;41957;52.060;5.138;2022-07-09T10:47:16;102851.41;;;22.50;55.35
56082;BME280;41957;52.060;5.138;2022-07-09T10:49:41;102856.66;;;22.53;55.43
56082;BME280;41957;52.060;5.138;2022-07-09T10:52:07;102847.66;;;22.54;55.38
56082;BME280;41957;52.060;5.138;2022-07-09T10:54:33;102849.38;;;22.57;55.39
56082;BME280;41957;52.060;5.138;2022-07-09T10:56:58;102844.78;;;22.60;55.28
56082;BME280;41957;52.060;5.138;2022-07-09T10:59:24;102850.09;;;22.62;55.37
56082;BME280;41957;52.060;5.138;2022-07-09T11:01:49;102857.25;;;22.61;55.36
56082;BME280;41957;52.060;5.138;2022-07-09T11:04:23;102851.06;;;22.59;55.50
56082;BME280;41957;52.060;5.138;2022-07-09T11:06:49;102848.38;;;22.59;55.83
56082;BME280;41957;52.060;5.138;2022-07-09T11:09:14;102846.56;;;22.60;55.75
56082;BME280;41957;52.060;5.138;2022-07-09T11:11:43;102856.47;;;22.58;55.80
56082;BME280;41957;52.060;5.138;2022-07-09T11:14:11;102854.72;;;22.57;55.99
56082;BME280;41957;52.060;5.138;2022-07-09T11:16:37;102857.31;;;22.60;55.74
56082;BME280;41957;52.060;5.138;2022-07-09T11:19:12;102858.16;;;22.60;55.85
56082;BME280;41957;52.060;5.138;2022-07-09T11:21:37;102853.75;;;22.59;56.03
56082;BME280;41957;52.060;5.138;2022-07-09T11:24:03;102850.19;;;22.59;56.10
56082;BME280;41957;52.060;5.138;2022-07-09T11:26:36;102854.69;;;22.58;56.21
56082;BME280;41957;52.060;5.138;2022-07-09T11:29:01;102856.44;;;22.59;56.13
56082;BME280;41957;52.060;5.138;2022-07-09T11:31:27;102860.06;;;22.58;56.26
56082;BME280;41957;52.060;5.138;2022-07-09T11:33:53;102861.91;;;22.56;56.26
56082;BME280;41957;52.060;5.138;2022-07-09T11:36:46;102861.69;;;22.62;56.22
56082;BME280;41957;52.060;5.138;2022-07-09T11:39:28;102862.66;;;22.60;56.25
56082;BME280;41957;52.060;5.138;2022-07-09T11:41:53;102865.31;;;22.61;56.59
56082;BME280;41957;52.060;5.138;2022-07-09T11:44:23;102865.31;;;22.61;56.52
56082;BME280;41957;52.060;5.138;2022-07-09T11:47:07;102870.56;;;22.64;56.42
56082;BME280;41957;52.060;5.138;2022-07-09T11:52:01;102854.69;;;22.58;57.08
56082;BME280;41957;52.060;5.138;2022-07-09T11:54:30;102858.16;;;22.60;56.86
56082;BME280;41957;52.060;5.138;2022-07-09T11:56:55;102854.63;;;22.60;57.04
56082;BME280;41957;52.060;5.138;2022-07-09T11:59:27;102858.25;;;22.59;57.16
56082;BME280;41957;52.060;5.138;2022-07-09T12:01:55;102863.59;;;22.59;57.12
56082;BME280;41957;52.060;5.138;2022-07-09T12:04:21;102860.91;;;22.59;57.32
56082;BME280;41957;52.060;5.138;2022-07-09T12:06:50;102861.78;;;22.59;57.37
56082;BME280;41957;52.060;5.138;2022-07-09T12:09:15;102861.78;;;22.59;57.70
56082;BME280;41957;52.060;5.138;2022-07-09T12:11:41;102860.84;;;22.60;57.56
56082;BME280;41957;52.060;5.138;2022-07-09T12:14:06;102859.94;;;22.61;57.54
56082;BME280;41957;52.060;5.138;2022-07-09T12:16:32;102861.69;;;22.62;57.40
56082;BME280;41957;52.060;5.138;2022-07-09T12:18:57;102865.19;;;22.64;57.56
56082;BME280;41957;52.060;5.138;2022-07-09T12:21:23;102852.44;;;22.71;57.17
56082;BME280;41957;52.060;5.138;2022-07-09T12:23:48;102850.50;;;22.75;57.19
56082;BME280;41957;52.060;5.138;2022-07-09T12:26:13;102844.41;;;22.71;57.23
56082;BME280;41957;52.060;5.138;2022-07-09T12:28:38;102853.41;;;22.68;57.09
56082;BME280;41957;52.060;5.138;2022-07-09T12:31:04;102850.78;;;22.67;57.46
56082;BME280;41957;52.060;5.138;2022-07-09T12:33:29;102850.78;;;22.67;57.38
56082;BME280;41957;52.060;5.138;2022-07-09T12:35:55;102844.53;;;22.66;57.45
56082;BME280;41957;52.060;5.138;2022-07-09T12:38:20;102852.56;;;22.68;57.38
56082;BME280;41957;52.060;5.138;2022-07-09T12:40:45;102848.06;;;22.68;57.31
56082;BME280;41957;52.060;5.138;2022-07-09T12:43:11;102834.47;;;22.73;57.28
56082;BME280;41957;52.060;5.138;2022-07-09T12:45:36;102844.31;;;22.73;57.35
56082;BME280;41957;52.060;5.138;2022-07-09T12:48:01;102841.75;;;22.70;57.18
56082;BME280;41957;52.060;5.138;2022-07-09T12:50:26;102841.75;;;22.70;57.38